Lilienfeld, Austria
Current Conditions -  °F | °C
As of 5:50 AM on Wednesday 22 Oct 2014 (Local Time) from LOXT Reporting Station
Broken Clouds Broken Clouds  
Wind Chill: 42°   Ceiling: 11000
Heat Index: 48°   Visibility: 16mi
Dew Point: 41°   Wind: 15mph
Humidity: 76%   Direction: 280°W
Pressure: 29.74"   Gusts: NA
Location:  48.01°N, 15.6°E
Report Text: LOXT 220350Z 28013KT 25KM FEW020CU SCT035SC BKN110AC 09/05 Q1007 RMK OVC
Loading
Personal Weather Stations






























Interactive Weather Map
Tropical Storm Tracking
New forecast layout! Learn more

10-Day Weather Forecast

Advertisements
Track Severe Weather on mobile